Time;durP1;ratioP1;P1;durP2;ratioP2;P2;SDS_P1;SDS_P2;PMS_P1;PMS_P2;Temp;Humidity;BMP_temperature;BMP_pressure;BME280_temperature;BME280_humidity;BME280_pressure;Samples;Min_cycle;Max_cycle;Signal;HPM_P1;HPM_P2
2023/03/08 00:00:59;;;;;;;28.90;16.73;;;2.00;99.90;;;;;;5075000;28;20028;-84
2023/03/08 00:03:25;;;;;;;27.23;15.88;;;1.90;99.90;;;;;;5057980;28;20025;-84
2023/03/08 00:05:50;;;;;;;25.52;15.75;;;1.90;99.90;;;;;;5040360;28;20029;-84
2023/03/08 00:08:17;;;;;;;23.98;15.48;;;1.90;99.90;;;;;;5040785;28;20071;-85
2023/03/08 00:10:43;;;;;;;32.75;18.90;;;1.90;99.90;;;;;;5057849;28;20033;-84
2023/03/08 00:13:08;;;;;;;37.97;18.65;;;1.90;99.90;;;;;;5074377;28;20480;-85
2023/03/08 00:15:37;;;;;;;35.40;19.45;;;1.90;99.90;;;;;;5040764;28;20062;-85
2023/03/08 00:18:03;;;;;;;33.80;18.70;;;1.90;99.90;;;;;;5074071;28;20032;-86
2023/03/08 00:20:29;;;;;;;32.53;19.63;;;1.90;99.90;;;;;;5074068;28;20035;-84
2023/03/08 00:22:54;;;;;;;29.95;19.17;;;1.80;99.90;;;;;;5041022;28;20385;-84
2023/03/08 00:25:20;;;;;;;37.15;20.42;;;1.90;99.90;;;;;;5057260;28;20036;-83
2023/03/08 00:27:46;;;;;;;40.13;20.63;;;1.90;99.90;;;;;;5040815;28;20028;-84
2023/03/08 00:30:12;;;;;;;36.95;20.92;;;1.80;99.90;;;;;;5075560;28;20029;-84
2023/03/08 00:32:38;;;;;;;29.98;18.98;;;1.90;99.90;;;;;;5074872;28;21096;-84
2023/03/08 00:35:04;;;;;;;30.85;18.38;;;1.90;99.90;;;;;;5049555;28;20111;-83
2023/03/08 00:37:30;;;;;;;24.80;16.73;;;1.90;99.90;;;;;;5073799;28;20028;-84
2023/03/08 00:39:56;;;;;;;37.97;21.20;;;1.80;99.90;;;;;;5060450;28;20052;-84
2023/03/08 00:42:22;;;;;;;32.67;20.35;;;1.80;99.90;;;;;;5077213;28;20081;-85
2023/03/08 00:44:48;;;;;;;28.13;18.13;;;1.80;99.90;;;;;;5077085;28;20432;-84
2023/03/08 00:47:15;;;;;;;32.10;18.10;;;1.80;99.90;;;;;;5076890;28;20052;-84
2023/03/08 00:49:41;;;;;;;40.65;21.65;;;1.80;99.90;;;;;;5076851;28;20025;-84
2023/03/08 00:52:07;;;;;;;30.73;19.17;;;1.80;99.90;;;;;;5060319;28;20031;-85
2023/03/08 00:54:33;;;;;;;26.83;18.20;;;1.90;99.90;;;;;;5076777;28;20135;-84
2023/03/08 00:56:59;;;;;;;33.17;18.83;;;1.80;99.90;;;;;;5060139;28;20111;-84
2023/03/08 00:59:24;;;;;;;41.55;21.17;;;1.80;99.90;;;;;;5060080;28;20518;-85
2023/03/08 01:01:50;;;;;;;36.20;20.77;;;1.80;99.90;;;;;;5060356;28;20547;-84
2023/03/08 01:04:16;;;;;;;32.60;19.45;;;1.80;99.90;;;;;;5094993;28;20051;-84
2023/03/08 01:06:42;;;;;;;42.83;21.77;;;1.80;99.90;;;;;;5076954;28;20097;-83
2023/03/08 01:09:09;;;;;;;40.00;21.67;;;1.80;99.90;;;;;;5076821;28;20433;-84
2023/03/08 01:11:36;;;;;;;43.40;21.80;;;1.80;99.90;;;;;;5076585;28;20024;-84
2023/03/08 01:14:03;;;;;;;41.05;21.55;;;1.80;99.90;;;;;;5076635;28;20036;-84
2023/03/08 01:16:32;;;;;;;43.30;21.73;;;1.80;99.90;;;;;;5076294;28;20109;-84
2023/03/08 01:18:59;;;;;;;32.55;19.90;;;1.80;99.90;;;;;;5076354;28;20028;-84
2023/03/08 01:21:28;;;;;;;39.80;20.13;;;1.80;99.90;;;;;;5075894;28;20035;-85
2023/03/08 01:23:54;;;;;;;41.05;21.10;;;1.80;99.90;;;;;;5076326;28;20109;-84
2023/03/08 01:26:22;;;;;;;29.58;18.05;;;1.80;99.90;;;;;;5059549;28;20036;-84
2023/03/08 01:28:49;;;;;;;40.28;19.63;;;1.80;99.90;;;;;;5059563;28;20111;-85
2023/03/08 01:31:18;;;;;;;25.98;16.15;;;1.80;99.90;;;;;;5076001;28;20044;-84
2023/03/08 01:33:44;;;;;;;28.48;16.70;;;1.80;99.90;;;;;;5076040;28;20039;-84
2023/03/08 01:36:13;;;;;;;38.58;19.67;;;1.70;99.90;;;;;;5076047;28;20020;-82
2023/03/08 01:38:40;;;;;;;39.03;21.23;;;1.70;99.90;;;;;;5075881;28;20028;-83
2023/03/08 01:41:08;;;;;;;29.13;18.20;;;1.70;99.90;;;;;;5059659;28;20032;-84
2023/03/08 01:43:38;;;;;;;28.23;16.40;;;1.80;99.90;;;;;;5075954;28;20024;-84
2023/03/08 01:46:15;;;;;;;38.03;19.73;;;1.70;99.90;;;;;;5076065;28;20077;-83
2023/03/08 01:49:01;;;;;;;29.85;17.05;;;1.70;99.90;;;;;;5094057;28;20042;-83
2023/03/08 01:52:02;;;;;;;43.38;21.55;;;1.70;99.90;;;;;;5062308;28;20077;-85
2023/03/08 01:54:35;;;;;;;47.67;22.77;;;1.70;99.90;;;;;;5071473;28;20051;-84
2023/03/08 01:57:10;;;;;;;39.95;20.65;;;1.70;99.90;;;;;;5076087;28;20435;-83
2023/03/08 01:59:37;;;;;;;43.78;20.73;;;1.70;99.90;;;;;;5075526;28;20472;-84
2023/03/08 02:02:03;;;;;;;32.40;17.60;;;1.70;99.90;;;;;;5059172;28;20028;-84
2023/03/08 02:04:29;;;;;;;31.38;19.13;;;1.70;99.90;;;;;;5093668;28;20101;-84
2023/03/08 02:06:55;;;;;;;36.55;20.13;;;1.70;99.90;;;;;;5058815;28;20471;-83
2023/03/08 02:09:21;;;;;;;40.70;20.85;;;1.70;99.90;;;;;;5075894;28;20086;-83
2023/03/08 02:11:47;;;;;;;42.80;20.73;;;1.70;99.90;;;;;;5075515;28;20470;-83
2023/03/08 02:14:13;;;;;;;39.15;20.13;;;1.70;99.90;;;;;;5075411;28;20035;-83
2023/03/08 02:16:39;;;;;;;37.83;19.27;;;1.70;99.90;;;;;;5058709;28;20028;-88
2023/03/08 02:19:23;;;;;;;37.97;19.95;;;1.70;99.90;;;;;;5072456;28;20373;-84
2023/03/08 02:21:49;;;;;;;40.38;20.30;;;1.70;99.90;;;;;;5073335;28;20024;-84
2023/03/08 02:24:21;;;;;;;38.13;20.23;;;1.70;99.90;;;;;;5072250;28;20032;-84
2023/03/08 02:26:47;;;;;;;37.60;19.92;;;1.70;99.90;;;;;;5073188;28;20024;-84
2023/03/08 02:29:13;;;;;;;42.80;20.23;;;1.70;99.90;;;;;;5058573;28;20498;-83
2023/03/08 02:31:39;;;;;;;39.25;20.33;;;1.70;99.90;;;;;;5044113;28;20048;-84
2023/03/08 02:34:05;;;;;;;41.22;20.90;;;1.70;99.90;;;;;;5081607;28;20036;-83
2023/03/08 02:36:30;;;;;;;39.20;20.67;;;1.60;99.90;;;;;;5080439;28;20096;-88
2023/03/08 02:38:56;;;;;;;40.13;20.52;;;1.70;99.90;;;;;;5086914;28;20044;-83
2023/03/08 02:41:22;;;;;;;40.28;21.48;;;1.60;99.90;;;;;;5079710;28;20040;-83
2023/03/08 02:43:47;;;;;;;43.20;21.42;;;1.60;99.90;;;;;;5078307;28;20050;-84
2023/03/08 02:46:14;;;;;;;42.05;22.38;;;1.60;99.90;;;;;;5055814;28;20026;-83
2023/03/08 02:48:39;;;;;;;49.95;22.95;;;1.60;99.90;;;;;;5098743;28;20024;-84
2023/03/08 02:51:05;;;;;;;40.67;21.98;;;1.60;99.90;;;;;;5079160;28;20035;-83
2023/03/08 02:53:31;;;;;;;41.47;21.80;;;1.70;99.90;;;;;;5079562;28;20024;-83
2023/03/08 02:55:57;;;;;;;46.38;23.67;;;1.60;99.90;;;;;;5074731;28;20021;-83
2023/03/08 02:58:22;;;;;;;42.80;23.63;;;1.70;99.90;;;;;;5059053;28;20369;-84
2023/03/08 03:00:48;;;;;;;58.63;25.67;;;1.70;99.90;;;;;;5042104;28;20465;-83
2023/03/08 03:03:15;;;;;;;38.50;20.67;;;1.70;99.90;;;;;;5058493;28;20055;-83
2023/03/08 03:05:44;;;;;;;40.00;19.73;;;1.70;99.90;;;;;;5075679;28;20032;-84
2023/03/08 03:08:10;;;;;;;49.95;23.60;;;1.60;99.90;;;;;;5075426;28;20032;-83
2023/03/08 03:10:37;;;;;;;52.88;23.92;;;1.60;99.90;;;;;;5058714;28;20029;-84
2023/03/08 03:13:04;;;;;;;50.63;22.92;;;1.60;99.90;;;;;;5075365;28;20372;-83
2023/03/08 03:15:30;;;;;;;52.28;24.77;;;1.60;99.90;;;;;;5075231;28;20017;-83
2023/03/08 03:17:56;;;;;;;40.83;22.48;;;1.60;99.90;;;;;;5075134;28;20581;-83
2023/03/08 03:20:22;;;;;;;51.38;24.77;;;1.70;99.90;;;;;;5075295;28;20032;-83
2023/03/08 03:22:48;;;;;;;71.55;28.67;;;1.60;99.90;;;;;;5061732;28;20024;-84
2023/03/08 03:25:14;;;;;;;50.38;25.25;;;1.60;99.90;;;;;;5078558;28;20035;-84
2023/03/08 03:27:39;;;;;;;69.82;25.48;;;1.60;99.90;;;;;;5061771;28;20028;-85
2023/03/08 03:30:07;;;;;;;71.28;25.65;;;1.60;99.90;;;;;;5078320;28;20024;-84
2023/03/08 03:32:33;;;;;;;103.85;31.95;;;1.50;99.90;;;;;;5078077;28;20081;-84
2023/03/08 03:34:59;;;;;;;67.50;28.33;;;1.60;99.90;;;;;;5077263;28;20110;-85
2023/03/08 03:37:25;;;;;;;120.28;32.35;;;1.50;99.90;;;;;;5056967;28;20440;-85
2023/03/08 03:39:50;;;;;;;140.25;33.45;;;1.50;99.90;;;;;;5075370;28;20055;-85
2023/03/08 03:42:16;;;;;;;111.28;33.47;;;1.50;99.90;;;;;;5078280;28;20422;-84
2023/03/08 03:44:42;;;;;;;139.90;33.10;;;1.50;99.90;;;;;;5077511;28;20099;-85
2023/03/08 03:47:08;;;;;;;202.80;39.47;;;1.50;99.90;;;;;;5060988;28;20039;-84
2023/03/08 03:49:33;;;;;;;166.90;41.53;;;1.50;99.90;;;;;;5077846;28;20031;-84
2023/03/08 03:51:59;;;;;;;161.82;38.00;;;1.50;99.90;;;;;;5061364;28;20464;-83
2023/03/08 03:54:25;;;;;;;194.30;39.03;;;1.60;99.90;;;;;;5061561;28;20079;-84
2023/03/08 03:56:50;;;;;;;193.25;41.17;;;1.50;99.90;;;;;;5060958;28;20028;-84
2023/03/08 03:59:16;;;;;;;157.52;42.22;;;1.50;99.90;;;;;;5077859;28;20035;-84
2023/03/08 04:01:42;;;;;;;139.30;41.08;;;1.50;99.90;;;;;;5061252;28;20064;-84
2023/03/08 04:04:09;;;;;;;185.48;46.28;;;1.60;99.90;;;;;;5077905;28;20032;-84
2023/03/08 04:06:34;;;;;;;177.88;43.42;;;1.60;99.90;;;;;;5060994;28;20478;-84
2023/03/08 04:09:05;;;;;;;209.05;46.97;;;1.60;99.90;;;;;;5060757;28;20135;-84
2023/03/08 04:11:32;;;;;;;;;;;1.60;99.90;;;;;;5062277;28;20024;-84
2023/03/08 04:13:58;;;;;;;149.02;40.03;;;1.70;99.90;;;;;;5095779;28;19904;-85
2023/03/08 04:16:29;;;;;;;193.55;42.70;;;1.70;99.90;;;;;;5060617;28;20026;-84
2023/03/08 04:19:02;;;;;;;150.68;41.78;;;1.70;99.90;;;;;;5095414;28;20078;-84
2023/03/08 04:21:30;;;;;;;210.23;46.47;;;1.70;99.90;;;;;;5061987;28;20032;-85
2023/03/08 04:23:56;;;;;;;160.77;44.00;;;1.70;99.90;;;;;;5077314;28;20032;-85
2023/03/08 04:26:22;;;;;;;198.73;43.92;;;1.70;99.90;;;;;;5077392;28;20055;-85
2023/03/08 04:28:48;;;;;;;214.32;47.13;;;1.70;99.90;;;;;;5077231;28;20032;-85
2023/03/08 04:31:26;;;;;;;222.70;43.75;;;1.70;99.90;;;;;;5060714;28;20055;-84
2023/03/08 04:33:52;;;;;;;178.15;43.85;;;1.60;99.90;;;;;;5077273;28;20024;-84
2023/03/08 04:36:18;;;;;;;212.63;45.78;;;1.60;99.90;;;;;;5077192;28;20111;-84
2023/03/08 04:38:45;;;;;;;164.13;44.08;;;1.60;99.90;;;;;;5076896;28;20024;-88
2023/03/08 04:41:11;;;;;;;208.18;47.20;;;1.60;99.90;;;;;;5076800;28;20036;-85
2023/03/08 04:43:38;;;;;;;208.20;47.53;;;1.70;99.90;;;;;;5077097;28;20020;-83
2023/03/08 04:46:06;;;;;;;178.10;43.15;;;1.70;99.90;;;;;;5077043;28;20020;-85
2023/03/08 04:48:32;;;;;;;168.65;43.95;;;1.70;99.90;;;;;;5077479;28;20032;-85
2023/03/08 04:51:01;;;;;;;211.88;44.95;;;1.70;99.90;;;;;;5059642;28;20107;-85
2023/03/08 04:53:28;;;;;;;215.95;45.80;;;1.70;99.90;;;;;;5077182;28;20020;-84
2023/03/08 04:55:54;;;;;;;154.32;41.65;;;1.70;99.90;;;;;;5076615;28;20035;-83
2023/03/08 04:58:20;;;;;;;189.65;43.97;;;1.80;99.90;;;;;;5076358;28;20032;-84
2023/03/08 05:00:47;;;;;;;244.70;46.30;;;1.80;99.90;;;;;;5059908;28;20110;-87
2023/03/08 05:03:13;;;;;;;160.05;40.90;;;1.80;99.90;;;;;;5077110;28;20487;-84
2023/03/08 05:05:50;;;;;;;228.32;46.40;;;1.80;99.90;;;;;;5059974;28;20032;-84
2023/03/08 05:08:17;;;;;;;205.00;45.92;;;1.90;99.90;;;;;;5076816;28;20491;-84
2023/03/08 05:10:56;;;;;;;284.00;50.20;;;1.80;99.90;;;;;;5081316;28;20024;-85
2023/03/08 05:13:22;;;;;;;227.80;44.60;;;1.80;99.90;;;;;;5056482;28;20468;-84
2023/03/08 05:15:48;;;;;;;231.70;45.40;;;1.80;99.90;;;;;;5075603;28;20457;-86
2023/03/08 05:18:14;;;;;;;198.07;44.63;;;1.80;99.90;;;;;;5060016;28;20043;-84
2023/03/08 05:20:40;;;;;;;185.52;43.22;;;1.80;99.90;;;;;;5076458;28;20028;-84
2023/03/08 05:23:05;;;;;;;227.95;48.95;;;1.80;99.90;;;;;;5076282;28;20035;-85
2023/03/08 05:25:32;;;;;;;169.48;42.13;;;1.80;99.90;;;;;;5059944;28;20036;-85
2023/03/08 05:27:58;;;;;;;188.27;44.85;;;1.80;99.90;;;;;;5076979;28;20443;-84
2023/03/08 05:30:24;;;;;;;175.25;44.15;;;1.80;99.90;;;;;;5076413;28;20166;-85
2023/03/08 05:32:50;;;;;;;175.95;44.38;;;1.80;99.90;;;;;;5076511;28;20081;-86
2023/03/08 05:35:16;;;;;;;290.83;53.25;;;1.80;99.90;;;;;;5076965;28;20115;-84
2023/03/08 05:37:41;;;;;;;213.27;49.17;;;1.80;99.90;;;;;;5076911;28;20481;-85
2023/03/08 05:40:08;;;;;;;187.30;47.55;;;1.80;99.90;;;;;;5060289;28;20024;-85
2023/03/08 05:42:34;;;;;;;222.52;46.65;;;1.80;99.90;;;;;;5060488;28;20463;-85
2023/03/08 05:44:59;;;;;;;186.10;46.85;;;1.80;99.90;;;;;;5073668;28;20079;-85
2023/03/08 05:47:25;;;;;;;169.65;44.10;;;1.80;99.90;;;;;;5066149;28;20027;-84
2023/03/08 05:49:51;;;;;;;203.63;46.15;;;1.80;99.90;;;;;;5099634;28;20035;-84
2023/03/08 05:52:17;;;;;;;201.38;44.45;;;1.90;99.90;;;;;;5088474;28;20028;-84
2023/03/08 05:54:42;;;;;;;167.95;39.20;;;1.80;99.90;;;;;;5081256;28;20392;-83
2023/03/08 05:57:08;;;;;;;211.75;44.92;;;1.80;99.90;;;;;;5112460;28;20083;-85
2023/03/08 05:59:34;;;;;;;202.23;44.35;;;1.80;99.90;;;;;;5086055;28;20379;-84
2023/03/08 06:01:59;;;;;;;170.55;41.20;;;1.80;99.90;;;;;;5075315;28;20035;-86
2023/03/08 06:04:25;;;;;;;207.25;43.92;;;1.80;99.90;;;;;;5056387;28;20036;-87
2023/03/08 06:09:39;;;;;;;232.10;44.40;;;1.80;99.90;;;;;;5046141;28;20092;-86
2023/03/08 06:12:05;;;;;;;299.17;51.78;;;1.80;99.90;;;;;;5064718;28;20039;-86
2023/03/08 06:14:30;;;;;;;271.80;49.58;;;1.80;99.90;;;;;;5061186;28;20016;-86
2023/03/08 06:16:56;;;;;;;442.05;60.15;;;1.70;99.90;;;;;;5094810;28;20036;-84
2023/03/08 06:19:22;;;;;;;304.08;53.78;;;1.70;99.90;;;;;;5089455;28;20029;-82
2023/03/08 06:21:47;;;;;;;250.63;47.28;;;1.70;99.90;;;;;;5056922;28;20031;-85
2023/03/08 06:24:13;;;;;;;202.63;44.38;;;1.80;99.90;;;;;;5073024;28;20056;-85
2023/03/08 06:26:39;;;;;;;209.55;45.95;;;1.70;99.90;;;;;;5057917;28;20029;-85
2023/03/08 06:29:04;;;;;;;206.15;43.97;;;1.80;99.90;;;;;;5057630;28;20025;-86
2023/03/08 06:31:30;;;;;;;190.23;41.10;;;1.80;99.90;;;;;;5072397;28;20044;-85
2023/03/08 06:33:56;;;;;;;219.40;44.15;;;1.80;99.90;;;;;;5075831;28;20040;-87
2023/03/08 06:36:22;;;;;;;175.73;41.42;;;1.70;99.90;;;;;;5059552;28;20043;-86
2023/03/08 06:38:48;;;;;;;178.40;40.60;;;1.80;99.90;;;;;;5075772;28;20042;-86
2023/03/08 06:41:16;;;;;;;199.85;43.38;;;1.80;99.90;;;;;;5076061;28;20101;-85
2023/03/08 06:43:42;;;;;;;179.23;40.60;;;1.80;99.90;;;;;;5067669;28;20051;-85
2023/03/08 06:46:15;;;;;;;171.25;38.88;;;1.80;99.90;;;;;;5069505;28;20025;-85
2023/03/08 06:48:41;;;;;;;181.32;40.80;;;1.80;99.90;;;;;;5071942;28;20074;-86
2023/03/08 06:51:07;;;;;;;196.55;38.80;;;1.80;99.90;;;;;;5068406;28;20446;-87
2023/03/08 06:53:35;;;;;;;197.52;39.10;;;1.80;99.90;;;;;;5052459;28;20460;-85
2023/03/08 06:56:02;;;;;;;254.68;42.72;;;1.80;99.90;;;;;;5048866;28;20028;-86
2023/03/08 06:58:28;;;;;;;196.80;40.47;;;1.80;99.90;;;;;;5058801;28;20029;-87
2023/03/08 07:00:54;;;;;;;192.90;41.70;;;1.80;99.90;;;;;;5088295;28;20468;-86
2023/03/08 07:03:19;;;;;;;231.00;43.25;;;1.80;99.90;;;;;;5059811;28;20020;-85
2023/03/08 07:05:45;;;;;;;146.88;38.00;;;1.80;99.90;;;;;;5077288;28;20456;-85
2023/03/08 07:08:11;;;;;;;259.50;42.60;;;1.80;99.90;;;;;;5072935;28;20037;-86
2023/03/08 07:10:36;;;;;;;229.18;43.42;;;1.90;99.90;;;;;;5073640;28;20439;-85
2023/03/08 07:13:02;;;;;;;249.05;44.28;;;1.80;99.90;;;;;;5059051;28;20464;-85
2023/03/08 07:15:28;;;;;;;195.32;40.03;;;1.90;99.90;;;;;;5079496;28;20028;-85
2023/03/08 07:17:55;;;;;;;195.32;40.88;;;1.90;99.90;;;;;;5079585;28;20020;-85
2023/03/08 07:20:23;;;;;;;303.00;47.63;;;1.90;99.90;;;;;;5078197;28;20040;-85
2023/03/08 07:22:49;;;;;;;203.38;42.42;;;1.90;99.90;;;;;;5078206;28;20536;-85
2023/03/08 07:25:17;;;;;;;199.93;41.10;;;1.90;99.90;;;;;;5079344;28;20115;-85
2023/03/08 07:27:43;;;;;;;264.38;45.72;;;1.90;99.90;;;;;;5078654;28;20024;-85
2023/03/08 07:30:11;;;;;;;170.68;42.03;;;1.90;99.90;;;;;;5078809;28;20020;-85
2023/03/08 07:32:39;;;;;;;200.52;40.10;;;2.00;99.90;;;;;;5078942;28;20048;-85
2023/03/08 07:35:06;;;;;;;203.25;41.58;;;2.00;99.90;;;;;;5078507;28;20052;-86
2023/03/08 07:37:32;;;;;;;201.43;40.88;;;2.00;99.90;;;;;;5062753;28;20055;-85
2023/03/08 07:39:58;;;;;;;226.13;44.92;;;2.00;99.90;;;;;;5058650;28;20060;-85
2023/03/08 07:42:23;;;;;;;217.77;43.30;;;2.00;99.90;;;;;;5079539;28;20031;-84
2023/03/08 07:44:49;;;;;;;192.57;43.20;;;2.00;99.90;;;;;;5063833;28;20042;-85
2023/03/08 07:47:15;;;;;;;218.35;45.15;;;2.00;99.90;;;;;;5063720;28;20051;-87
2023/03/08 07:49:40;;;;;;;188.43;40.42;;;2.10;99.90;;;;;;5047696;28;20395;-86
2023/03/08 07:52:27;;;;;;;229.52;44.25;;;2.00;99.90;;;;;;5064082;28;20071;-86
2023/03/08 07:54:53;;;;;;;177.75;40.50;;;2.00;99.90;;;;;;5059102;28;20051;-86
2023/03/08 07:57:19;;;;;;;208.07;42.63;;;2.00;99.90;;;;;;5076343;28;20033;-87
2023/03/08 07:59:45;;;;;;;196.43;42.65;;;2.00;99.90;;;;;;5042208;28;20079;-86
2023/03/08 08:02:14;;;;;;;165.57;40.42;;;2.10;99.90;;;;;;5076910;28;20025;-87
2023/03/08 08:04:40;;;;;;;148.50;39.92;;;2.10;99.90;;;;;;5077360;28;20055;-87
2023/03/08 08:07:22;;;;;;;134.77;39.72;;;2.10;99.90;;;;;;5060564;28;20529;-86
2023/03/08 08:13:52;;;;;;;166.27;40.47;;;2.10;99.90;;;;;;5077121;28;20032;-87
2023/03/08 08:20:13;;;;;;;191.73;42.40;;;2.10;99.90;;;;;;5076249;28;20039;-87
2023/03/08 08:39:55;;;;;;;162.43;38.97;;;2.10;99.90;;;;;;5096800;28;20069;-86
2023/03/08 08:45:59;;;;;;;184.23;41.53;;;2.20;99.90;;;;;;5095087;28;20380;-87
2023/03/08 08:51:46;;;;;;;131.70;36.83;;;2.20;99.90;;;;;;5096872;28;20062;-89
2023/03/08 08:57:34;;;;;;;163.55;37.45;;;2.20;99.90;;;;;;5108618;28;20027;-86
2023/03/08 09:03:32;;;;;;;99.55;28.00;;;2.30;99.90;;;;;;5119563;28;20054;-87
2023/03/08 09:05:58;;;;;;;86.20;26.70;;;2.30;99.90;;;;;;5064834;28;20044;-86
2023/03/08 09:08:23;;;;;;;82.03;25.08;;;2.30;99.90;;;;;;5084105;28;20016;-88
2023/03/08 09:10:49;;;;;;;83.18;25.13;;;2.30;99.90;;;;;;5085355;28;20016;-88
2023/03/08 09:13:23;;;;;;;88.63;25.80;;;2.30;99.90;;;;;;5047613;28;20033;-88
2023/03/08 09:19:11;;;;;;;92.28;26.85;;;2.30;99.90;;;;;;5095943;28;20398;-89
2023/03/08 09:25:08;;;;;;;63.67;22.50;;;2.40;99.90;;;;;;5095932;28;20031;-89
2023/03/08 09:30:58;;;;;;;56.60;19.02;;;2.40;99.90;;;;;;5095388;28;20093;-88
2023/03/08 09:33:46;;;;;;;66.28;19.27;;;2.40;99.90;;;;;;5056080;28;20155;-86
2023/03/08 09:36:12;;;;;;;52.53;18.52;;;2.40;99.90;;;;;;5070922;28;20048;-90
2023/03/08 09:38:37;;;;;;;58.85;19.60;;;2.40;99.90;;;;;;5075011;28;20029;-88
2023/03/08 09:41:09;;;;;;;51.42;16.65;;;2.50;99.90;;;;;;5059419;28;20387;-89
2023/03/08 09:47:32;;;;;;;45.05;15.02;;;2.50;99.90;;;;;;5037317;28;20078;-86
2023/03/08 09:50:12;;;;;;;45.03;16.30;;;2.50;99.90;;;;;;5065396;28;20024;-90
2023/03/08 09:52:42;;;;;;;51.20;15.40;;;2.50;99.90;;;;;;5055562;28;20028;-86
2023/03/08 09:55:30;;;;;;;50.13;16.73;;;2.50;99.90;;;;;;5084840;28;20029;-89
2023/03/08 09:58:26;;;;;;;43.85;16.92;;;2.60;99.90;;;;;;5058224;28;20381;-87
2023/03/08 10:00:56;;;;;;;40.15;15.82;;;2.60;99.90;;;;;;5036912;28;20044;-89
2023/03/08 10:03:21;;;;;;;34.40;14.00;;;2.60;99.90;;;;;;5057520;28;20021;-88
2023/03/08 10:06:12;;;;;;;38.08;16.02;;;2.70;99.90;;;;;;5067172;28;20031;-89
2023/03/08 10:08:58;;;;;;;46.55;17.30;;;2.70;99.90;;;;;;5077968;28;20024;-87
2023/03/08 10:11:43;;;;;;;44.10;17.77;;;2.70;99.90;;;;;;5058933;28;20086;-88
2023/03/08 10:17:40;;;;;;;45.50;17.65;;;2.80;99.90;;;;;;5098782;28;20367;-88
2023/03/08 10:20:28;;;;;;;43.63;18.02;;;2.90;99.90;;;;;;5058907;28;20449;-87
2023/03/08 10:26:24;;;;;;;41.63;18.30;;;2.90;99.90;;;;;;5085006;28;20085;-86
2023/03/08 10:28:49;;;;;;;45.75;19.27;;;2.90;99.90;;;;;;5069693;28;20471;-89
2023/03/08 10:31:23;;;;;;;48.15;19.23;;;3.00;99.90;;;;;;5061260;28;20025;-91
2023/03/08 10:37:14;;;;;;;47.17;18.55;;;3.10;99.90;;;;;;5086840;28;20529;-88
2023/03/08 10:39:53;;;;;;;40.22;18.80;;;3.10;99.90;;;;;;5063458;28;20029;-89
2023/03/08 10:42:22;;;;;;;43.08;18.00;;;3.20;99.90;;;;;;5051215;28;20029;-88
2023/03/08 10:44:57;;;;;;;48.25;18.73;;;3.20;99.90;;;;;;5063790;28;20403;-86
2023/03/08 10:47:35;;;;;;;37.40;16.75;;;3.30;99.90;;;;;;5064978;28;20468;-90
2023/03/08 10:50:19;;;;;;;42.15;16.95;;;3.30;99.90;;;;;;5065795;28;20028;-86
2023/03/08 10:52:46;;;;;;;40.72;16.70;;;3.30;99.90;;;;;;5080012;28;20150;-87
2023/03/08 10:58:28;;;;;;;32.40;14.23;;;3.40;99.90;;;;;;5085223;28;20039;-86
2023/03/08 11:00:55;;;;;;;29.17;13.10;;;3.40;99.90;;;;;;5079534;28;20028;-86
2023/03/08 11:03:23;;;;;;;29.55;13.38;;;3.50;99.90;;;;;;5065444;28;20379;-86
2023/03/08 11:06:28;;;;;;;31.52;13.73;;;3.50;99.90;;;;;;5074307;28;20426;-87
2023/03/08 11:08:58;;;;;;;30.50;12.80;;;3.50;99.90;;;;;;5069558;28;20116;-86
2023/03/08 11:11:23;;;;;;;28.67;12.63;;;3.60;99.90;;;;;;5075078;28;20016;-89
2023/03/08 11:13:51;;;;;;;26.48;12.52;;;3.70;99.90;;;;;;5068077;28;20036;-85
2023/03/08 11:16:31;;;;;;;23.58;11.32;;;3.70;99.90;;;;;;5062562;28;20044;-88
2023/03/08 11:19:06;;;;;;;23.88;10.85;;;3.70;99.90;;;;;;5076031;28;20044;-87
2023/03/08 11:21:50;;;;;;;24.55;11.55;;;3.70;99.90;;;;;;5086430;28;20039;-87
2023/03/08 11:24:31;;;;;;;23.10;12.57;;;3.80;99.90;;;;;;5097357;28;20056;-86
2023/03/08 11:27:24;;;;;;;18.50;10.00;;;3.80;99.90;;;;;;5091259;28;20053;-86
2023/03/08 11:30:01;;;;;;;20.38;10.57;;;3.80;99.90;;;;;;5070980;28;20077;-85
2023/03/08 11:32:50;;;;;;;25.40;10.82;;;3.80;99.90;;;;;;5074456;28;20039;-85
2023/03/08 11:35:50;;;;;;;20.65;10.40;;;3.80;99.90;;;;;;5056346;28;20043;-89
2023/03/08 11:38:26;;;;;;;23.15;11.27;;;3.80;99.90;;;;;;5054827;28;20032;-87
2023/03/08 11:40:59;;;;;;;22.55;10.40;;;3.80;99.90;;;;;;5058000;28;20048;-85
2023/03/08 11:43:30;;;;;;;22.80;10.85;;;3.80;99.90;;;;;;5059281;28;20024;-86
2023/03/08 11:46:21;;;;;;;22.75;11.38;;;3.80;99.90;;;;;;5047646;28;20033;-86
2023/03/08 11:49:00;;;;;;;22.58;11.18;;;3.80;99.90;;;;;;5050749;28;20033;-87
2023/03/08 11:51:37;;;;;;;23.88;11.65;;;3.80;99.90;;;;;;5057117;28;20020;-87
2023/03/08 11:54:27;;;;;;;20.42;10.93;;;3.80;99.90;;;;;;5050640;28;20099;-87
2023/03/08 11:57:01;;;;;;;22.15;12.43;;;3.80;99.90;;;;;;5066963;28;20024;-86
2023/03/08 11:59:36;;;;;;;25.08;12.20;;;3.80;99.90;;;;;;5039102;28;20064;-87
2023/03/08 12:02:05;;;;;;;23.25;12.13;;;3.80;99.90;;;;;;5038459;28;20040;-87
2023/03/08 12:04:58;;;;;;;24.20;11.13;;;3.80;99.90;;;;;;5055657;28;20021;-86
2023/03/08 12:07:36;;;;;;;29.00;13.02;;;3.80;99.90;;;;;;5076841;28;20482;-87
2023/03/08 12:10:14;;;;;;;24.58;12.68;;;3.80;99.90;;;;;;5078142;28;20032;-86
2023/03/08 12:12:54;;;;;;;25.10;12.85;;;3.90;99.90;;;;;;5079412;28;20094;-93
2023/03/08 12:15:36;;;;;;;25.23;12.77;;;3.90;99.90;;;;;;5082537;28;20076;-85
2023/03/08 12:18:15;;;;;;;26.17;13.77;;;4.00;99.90;;;;;;5082910;28;20044;-86
2023/03/08 12:20:42;;;;;;;25.80;13.73;;;4.00;99.90;;;;;;5071234;28;20032;-92
2023/03/08 12:23:25;;;;;;;25.88;13.60;;;4.00;99.90;;;;;;5099013;28;20036;-93
2023/03/08 12:26:07;;;;;;;24.02;13.95;;;4.00;99.90;;;;;;5076780;28;20124;-87
2023/03/08 12:28:39;;;;;;;24.55;13.05;;;4.00;99.90;;;;;;5039216;28;20033;-85
2023/03/08 12:31:22;;;;;;;23.80;12.95;;;4.00;99.90;;;;;;5059293;28;20028;-86
2023/03/08 12:33:48;;;;;;;23.50;12.88;;;4.00;99.90;;;;;;5050889;28;20484;-86
2023/03/08 12:36:14;;;;;;;23.15;11.80;;;4.10;99.90;;;;;;5030401;28;20075;-86
2023/03/08 12:38:45;;;;;;;21.30;11.60;;;4.20;99.90;;;;;;5038189;28;20044;-86
2023/03/08 12:41:27;;;;;;;;;;;4.20;99.90;;;;;;5055389;28;20036;-89
2023/03/08 12:44:22;;;;;;;22.92;11.50;;;4.10;99.90;;;;;;5048727;28;20307;-85
2023/03/08 12:46:50;;;;;;;19.85;11.00;;;4.20;99.90;;;;;;5073309;28;20053;-88
2023/03/08 12:49:57;;;;;;;17.10;8.88;;;4.20;99.90;;;;;;5056132;28;20074;-87
2023/03/08 12:52:29;;;;;;;15.82;8.50;;;4.20;99.90;;;;;;5070861;28;20024;-87
2023/03/08 12:54:56;;;;;;;15.45;8.48;;;4.20;99.90;;;;;;5050372;28;20021;-85
2023/03/08 12:57:41;;;;;;;;;;;;;;;;;;;;;
2023/03/08 13:00:32;;;;;;;16.77;8.35;;;4.20;99.90;;;;;;5070692;28;20028;-88
2023/03/08 13:03:02;;;;;;;11.93;7.23;;;4.20;99.90;;;;;;5060584;28;20366;-87
2023/03/08 13:05:36;;;;;;;13.80;7.55;;;4.10;99.90;;;;;;5067762;28;20035;-87
2023/03/08 13:08:17;;;;;;;14.85;8.00;;;4.10;99.90;;;;;;5052940;28;20033;-87
2023/03/08 13:10:49;;;;;;;13.10;7.65;;;4.10;99.90;;;;;;5056871;28;20375;-87
2023/03/08 13:13:33;;;;;;;12.30;7.63;;;4.10;99.90;;;;;;5072268;28;20025;-86
2023/03/08 13:16:18;;;;;;;15.23;7.65;;;4.00;99.90;;;;;;5056823;28;20460;-86
2023/03/08 13:18:49;;;;;;;14.32;7.53;;;4.10;99.90;;;;;;5046534;28;20403;-86
2023/03/08 13:21:23;;;;;;;13.52;7.78;;;4.00;99.90;;;;;;5052851;28;20024;-84
2023/03/08 13:24:01;;;;;;;12.02;7.13;;;4.10;99.90;;;;;;5080900;28;20520;-87
2023/03/08 13:27:12;;;;;;;12.77;6.55;;;4.10;99.90;;;;;;5056228;28;20033;-86
2023/03/08 13:29:41;;;;;;;12.63;6.90;;;4.10;99.90;;;;;;5027356;28;20111;-86
2023/03/08 13:32:15;;;;;;;11.68;6.78;;;4.10;99.90;;;;;;5057263;28;20063;-85
2023/03/08 13:34:44;;;;;;;12.23;7.30;;;4.10;99.90;;;;;;5052624;28;20047;-84
2023/03/08 13:37:24;;;;;;;10.68;6.25;;;4.10;99.90;;;;;;5074017;28;20457;-87
2023/03/08 13:39:52;;;;;;;11.80;7.28;;;4.10;99.90;;;;;;5069103;28;20035;-85
2023/03/08 13:42:23;;;;;;;13.05;6.90;;;4.10;99.90;;;;;;5059668;28;20442;-88
2023/03/08 13:44:50;;;;;;;10.82;6.97;;;4.10;99.90;;;;;;5071426;28;20027;-86
2023/03/08 13:47:31;;;;;;;12.30;7.45;;;4.10;99.90;;;;;;5048374;28;20039;-87
2023/03/08 13:49:58;;;;;;;11.15;6.63;;;4.10;99.90;;;;;;5089595;28;20032;-85
2023/03/08 13:52:28;;;;;;;10.93;7.07;;;4.20;99.90;;;;;;5042445;28;20388;-92
2023/03/08 13:54:58;;;;;;;12.85;7.63;;;4.20;99.90;;;;;;5071614;28;20047;-86
2023/03/08 13:57:35;;;;;;;11.05;7.18;;;4.10;99.90;;;;;;5071201;28;20020;-87
2023/03/08 14:00:22;;;;;;;11.52;7.05;;;4.20;99.90;;;;;;5068113;28;20038;-87